createdAt,value
2023-05-25T00:02:20.364Z,0.89
2023-05-25T00:04:50.786Z,0.9
2023-05-25T00:07:21.316Z,0.94
2023-05-25T00:09:51.849Z,0.95
2023-05-25T00:12:22.477Z,0.94
2023-05-25T00:14:53.090Z,0.95
2023-05-25T00:17:23.499Z,0.94
2023-05-25T00:19:54.023Z,0.94
2023-05-25T00:22:24.523Z,0.95
2023-05-25T00:24:55.081Z,0.96
2023-05-25T00:27:25.648Z,0.95
2023-05-25T00:29:56.189Z,0.93
2023-05-25T00:32:26.738Z,0.97
2023-05-25T00:34:57.277Z,0.94
2023-05-25T00:37:27.828Z,0.93
2023-05-25T00:39:58.392Z,0.95
2023-05-25T00:42:28.955Z,0.97
2023-05-25T00:44:59.551Z,0.99
2023-05-25T00:47:30.077Z,0.98
2023-05-25T00:50:00.646Z,0.99
2023-05-25T00:52:31.206Z,1.01
2023-05-25T00:55:01.785Z,0.96
2023-05-25T00:57:32.354Z,0.95
2023-05-25T01:00:02.908Z,0.95
2023-05-25T01:02:33.251Z,0.94
2023-05-25T01:05:03.784Z,0.92
2023-05-25T01:07:34.337Z,0.95
2023-05-25T01:10:05.027Z,0.96
2023-05-25T01:12:35.596Z,0.95
2023-05-25T01:15:06.120Z,0.96
2023-05-25T01:17:36.767Z,0.92
2023-05-25T01:20:11.451Z,0.93
2023-05-25T01:22:37.486Z,0.98
2023-05-25T01:25:07.726Z,0.95
2023-05-25T01:27:38.269Z,0.95
2023-05-25T01:30:08.644Z,0.92
2023-05-25T01:32:39.148Z,0.94
2023-05-25T01:35:09.657Z,0.95
2023-05-25T01:37:40.182Z,0.88
2023-05-25T01:40:10.733Z,0.83
2023-05-25T01:42:41.292Z,0.82
2023-05-25T01:45:11.867Z,0.81
2023-05-25T01:47:42.418Z,0.81
2023-05-25T01:50:12.666Z,0.81
2023-05-25T01:52:43.248Z,0.81
2023-05-25T01:55:13.954Z,0.8
2023-05-25T01:57:44.503Z,0.88
2023-05-25T02:00:14.820Z,0.87
2023-05-25T02:02:45.360Z,0.83
2023-05-25T02:05:15.559Z,0.83
2023-05-25T02:07:45.752Z,0.84
2023-05-25T02:10:16.260Z,0.88
2023-05-25T02:12:46.774Z,0.87
2023-05-25T02:15:17.288Z,0.89
2023-05-25T02:17:47.548Z,0.94
2023-05-25T02:20:18.071Z,0.92
2023-05-25T02:22:48.561Z,0.91
2023-05-25T02:25:19.123Z,0.93
2023-05-25T02:27:49.749Z,0.97
2023-05-25T02:30:20.184Z,0.99
2023-05-25T02:32:50.791Z,1.01
2023-05-25T02:35:20.993Z,1.02
2023-05-25T02:37:51.408Z,1.01
2023-05-25T02:40:21.725Z,1.02
2023-05-25T02:42:52.010Z,1.02
2023-05-25T02:45:22.360Z,1.04
2023-05-25T02:47:52.874Z,1.07
2023-05-25T02:50:23.477Z,1.08
2023-05-25T02:52:53.690Z,1.1
2023-05-25T02:55:24.198Z,1.11
2023-05-25T02:57:54.767Z,1.07
2023-05-25T03:00:25.373Z,1.07
2023-05-25T03:02:55.657Z,1.03
2023-05-25T03:05:25.895Z,1.06
2023-05-25T03:07:56.437Z,1.05
2023-05-25T03:10:27.115Z,1.05
2023-05-25T03:12:57.556Z,1.04
2023-05-25T03:15:28.155Z,1.08
2023-05-25T03:17:58.760Z,1.08
2023-05-25T03:20:29.350Z,1.09
2023-05-25T03:22:59.296Z,1.08
2023-05-25T03:25:30.149Z,1.09
2023-05-25T03:28:00.884Z,1.08
2023-05-25T03:30:31.435Z,1.08
2023-05-25T03:33:02.271Z,1.08
2023-05-25T03:35:32.841Z,1.08
2023-05-25T03:38:03.396Z,1.1
2023-05-25T03:40:34.062Z,1.06
2023-05-25T03:43:04.504Z,1.1
2023-05-25T03:45:35.325Z,1.1
2023-05-25T03:48:05.899Z,1.1
2023-05-25T03:50:36.114Z,1.13
2023-05-25T03:53:06.402Z,1.18
2023-05-25T03:55:37.235Z,1.13
2023-05-25T03:58:07.763Z,1.15
2023-05-25T04:00:38.396Z,1.17
2023-05-25T04:03:08.690Z,1.17
2023-05-25T04:05:38.953Z,1.21
2023-05-25T04:08:09.133Z,1.18
2023-05-25T04:10:39.515Z,1.19
2023-05-25T04:13:10.320Z,1.2
2023-05-25T04:15:40.548Z,1.19
2023-05-25T04:18:10.624Z,1.21
2023-05-25T04:20:40.878Z,1.1
2023-05-25T04:23:11.121Z,1.09
2023-05-25T04:25:41.697Z,1.11
2023-05-25T04:28:11.976Z,1.13
2023-05-25T04:30:42.831Z,1.07
2023-05-25T04:33:12.979Z,1.05
2023-05-25T04:35:43.612Z,1.05
2023-05-25T04:38:14.190Z,1.06
2023-05-25T04:40:44.308Z,1.12
2023-05-25T04:43:14.486Z,1.11
2023-05-25T04:45:45.264Z,1.12
2023-05-25T04:48:15.395Z,1.1
2023-05-25T04:50:45.681Z,1.1
2023-05-25T04:53:16.279Z,1.1
2023-05-25T04:55:46.995Z,1.18
2023-05-25T04:58:17.165Z,1.18
2023-05-25T05:00:47.741Z,1.2
2023-05-25T05:03:17.897Z,1.2
2023-05-25T05:05:48.291Z,1.16
2023-05-25T05:08:18.713Z,1.17
2023-05-25T05:10:49.340Z,1.17
2023-05-25T05:13:19.405Z,1.19
2023-05-25T05:15:49.654Z,1.19
2023-05-25T05:18:20.236Z,1.15
2023-05-25T05:20:50.853Z,1.15
2023-05-25T05:23:21.171Z,1.14
2023-05-25T05:25:51.772Z,1.12
2023-05-25T05:28:22.663Z,1.17
2023-05-25T05:30:53.239Z,1.24
2023-05-25T05:33:23.604Z,1.16
2023-05-25T05:35:53.795Z,1.22
2023-05-25T05:38:24.079Z,1.2
2023-05-25T05:40:54.308Z,1.24
2023-05-25T05:43:24.889Z,1.2
2023-05-25T05:45:55.253Z,1.11
2023-05-25T05:48:25.344Z,1.04
2023-05-25T05:50:55.595Z,0.97
2023-05-25T05:53:26.069Z,0.94
2023-05-25T05:55:56.929Z,0.93
2023-05-25T05:58:27.664Z,0.9
2023-05-25T06:00:58.194Z,0.89
2023-05-25T06:03:28.483Z,1.01
2023-05-25T06:05:59.289Z,0.91
2023-05-25T06:08:30.027Z,0.8
2023-05-25T06:11:00.416Z,0.79
2023-05-25T06:13:30.843Z,0.82
2023-05-25T06:16:01.442Z,0.77
2023-05-25T06:18:31.839Z,0.76
2023-05-25T06:21:02.658Z,0.76
2023-05-25T06:23:32.813Z,0.75
2023-05-25T06:26:03.078Z,0.69
2023-05-25T06:28:33.601Z,0.68
2023-05-25T06:31:04.130Z,0.72
2023-05-25T06:33:34.620Z,0.78
2023-05-25T06:36:05.426Z,0.76
2023-05-25T06:38:35.936Z,0.71
2023-05-25T06:41:06.380Z,0.65
2023-05-25T06:43:36.880Z,0.65
2023-05-25T06:46:07.119Z,0.67
2023-05-25T06:48:37.587Z,0.62
2023-05-25T06:51:08.163Z,0.59
2023-05-25T06:53:38.559Z,0.72
2023-05-25T06:56:09.059Z,0.66
2023-05-25T06:58:39.549Z,0.62
2023-05-25T07:01:10.394Z,0.53
2023-05-25T07:03:40.515Z,0.53
2023-05-25T07:06:10.720Z,0.51
2023-05-25T07:08:41.630Z,0.51
2023-05-25T07:11:12.365Z,0.54
2023-05-25T07:13:43.058Z,0.54
2023-05-25T07:16:13.048Z,0.5
2023-05-25T07:18:43.632Z,0.52
2023-05-25T07:21:13.902Z,0.49
2023-05-25T07:23:44.301Z,0.49
2023-05-25T07:26:14.329Z,0.5
2023-05-25T07:28:44.799Z,0.49
2023-05-25T07:31:15.395Z,0.48
2023-05-25T07:33:45.651Z,0.47
2023-05-25T07:36:16.215Z,0.46
2023-05-25T07:38:46.765Z,0.42
2023-05-25T07:41:17.324Z,0.43
2023-05-25T07:43:48.060Z,0.41
2023-05-25T07:46:18.717Z,0.41
2023-05-25T07:48:49.154Z,0.45
2023-05-25T07:51:19.962Z,0.41
2023-05-25T07:53:50.468Z,0.41
2023-05-25T07:56:20.953Z,0.41
2023-05-25T07:58:51.429Z,0.43
2023-05-25T08:01:21.900Z,0.42
2023-05-25T08:03:52.445Z,0.46
2023-05-25T08:06:22.781Z,0.47
2023-05-25T08:08:53.207Z,0.43
2023-05-25T08:11:23.398Z,0.41
2023-05-25T08:13:53.579Z,0.42
2023-05-25T08:16:24.101Z,0.38
2023-05-25T08:18:54.443Z,0.34
2023-05-25T08:21:24.956Z,0.33
2023-05-25T08:23:55.010Z,0.37
2023-05-25T08:26:38.389Z,0.37
2023-05-25T08:28:55.953Z,0.42
2023-05-25T08:31:26.286Z,0.36
2023-05-25T08:33:56.691Z,0.36
2023-05-25T08:36:26.777Z,0.32
2023-05-25T08:38:57.190Z,0.33
2023-05-25T08:41:27.682Z,0.33
2023-05-25T08:43:58.109Z,0.31
2023-05-25T08:46:28.431Z,0.29
2023-05-25T08:48:58.883Z,0.3
2023-05-25T08:51:29.267Z,0.28
2023-05-25T08:53:59.670Z,0.29
2023-05-25T08:56:29.760Z,0.28
2023-05-25T08:59:00.258Z,0.26
2023-05-25T09:01:30.619Z,0.26
2023-05-25T09:04:01.136Z,0.28
2023-05-25T09:06:31.183Z,0.27
2023-05-25T09:09:01.610Z,0.3
2023-05-25T09:11:39.249Z,0.31
2023-05-25T09:14:02.453Z,0.3
2023-05-25T09:16:32.924Z,0.27
2023-05-25T09:19:03.360Z,0.27
2023-05-25T09:21:33.792Z,0.28
2023-05-25T09:24:04.071Z,0.26
2023-05-25T09:26:34.479Z,0.27
2023-05-25T09:29:04.893Z,0.28
2023-05-25T09:31:35.316Z,0.28
2023-05-25T09:34:05.663Z,0.29
2023-05-25T09:36:35.865Z,0.29
2023-05-25T09:39:06.289Z,0.27
2023-05-25T09:41:36.599Z,0.26
2023-05-25T09:44:11.782Z,0.26
2023-05-25T09:46:37.508Z,0.25
2023-05-25T09:49:07.775Z,0.27
2023-05-25T09:51:37.828Z,0.22
2023-05-25T09:54:08.188Z,0.2
2023-05-25T09:56:38.568Z,0.18
2023-05-25T09:59:08.970Z,0.17
2023-05-25T10:01:41.245Z,0.18
2023-05-25T10:04:09.767Z,0.2
2023-05-25T10:06:40.201Z,0.22
2023-05-25T10:09:10.600Z,0.23
2023-05-25T10:11:41.019Z,0.22
2023-05-25T10:14:11.428Z,0.21
2023-05-25T10:16:41.855Z,0.22
2023-05-25T10:19:12.252Z,0.21
2023-05-25T10:21:42.695Z,0.22
2023-05-25T10:24:13.113Z,0.22
2023-05-25T10:26:43.546Z,0.22
2023-05-25T10:29:14.503Z,0.22
2023-05-25T10:31:45.028Z,0.22
2023-05-25T10:34:15.466Z,0.23
2023-05-25T10:36:45.824Z,0.22
2023-05-25T10:39:16.179Z,0.21
2023-05-25T10:41:46.620Z,0.2
2023-05-25T10:44:17.072Z,0.21
2023-05-25T10:46:47.489Z,0.19
2023-05-25T10:49:17.805Z,0.2
2023-05-25T10:51:47.931Z,0.18
2023-05-25T10:54:18.314Z,0.18
2023-05-25T10:56:49.010Z,0.19
2023-05-25T10:59:19.402Z,0.19
2023-05-25T11:01:49.892Z,0.2
2023-05-25T11:04:19.929Z,0.2
2023-05-25T11:06:49.953Z,0.19
2023-05-25T11:09:20.310Z,0.2
2023-05-25T11:11:50.541Z,0.2
2023-05-25T11:14:20.813Z,0.2
2023-05-25T11:16:51.233Z,0.19
2023-05-25T11:19:21.555Z,0.17
2023-05-25T11:21:51.940Z,0.17
2023-05-25T11:24:22.315Z,0.18
2023-05-25T11:26:52.785Z,0.17
2023-05-25T11:29:23.136Z,0.16
2023-05-25T11:31:53.417Z,0.18
2023-05-25T11:34:23.763Z,0.17
2023-05-25T11:36:54.166Z,0.16
2023-05-25T11:39:24.518Z,0.16
2023-05-25T11:41:54.879Z,0.16
2023-05-25T11:44:25.228Z,0.17
2023-05-25T11:46:55.705Z,0.16
2023-05-25T11:49:26.068Z,0.17
2023-05-25T11:51:56.539Z,0.18
2023-05-25T11:54:26.846Z,0.17
2023-05-25T11:56:57.228Z,0.17
2023-05-25T11:59:29.453Z,0.16
2023-05-25T12:01:57.625Z,0.14
2023-05-25T12:04:28.039Z,0.14
2023-05-25T12:06:58.037Z,0.15
2023-05-25T12:09:28.389Z,0.15
2023-05-25T12:11:58.733Z,0.15
2023-05-25T12:14:29.168Z,0.16
2023-05-25T12:16:59.461Z,0.15
2023-05-25T12:19:29.796Z,0.15
2023-05-25T12:22:00.167Z,0.14
2023-05-25T12:24:30.501Z,0.14
2023-05-25T12:27:00.986Z,0.15
2023-05-25T12:29:31.235Z,0.15
2023-05-25T12:32:01.598Z,0.14
2023-05-25T12:34:31.950Z,0.13
2023-05-25T12:37:01.999Z,0.14
2023-05-25T12:39:32.339Z,0.14
2023-05-25T12:42:02.544Z,0.14
2023-05-25T12:44:32.888Z,0.14
2023-05-25T12:47:03.244Z,0.13
2023-05-25T12:49:33.487Z,0.12
2023-05-25T12:52:03.848Z,0.12
2023-05-25T12:54:34.177Z,0.12
2023-05-25T12:57:04.553Z,0.13
2023-05-25T12:59:34.916Z,0.13
2023-05-25T13:02:05.430Z,0.12
2023-05-25T13:04:35.504Z,0.12
2023-05-25T13:07:05.853Z,0.14
2023-05-25T13:09:36.188Z,0.12
2023-05-25T13:12:07.013Z,0.12
2023-05-25T13:14:37.405Z,0.12
2023-05-25T13:17:07.462Z,0.13
2023-05-25T13:19:38.224Z,0.12
2023-05-25T13:22:08.326Z,0.13
2023-05-25T13:24:38.339Z,0.13
2023-05-25T13:27:08.676Z,0.14
2023-05-25T13:29:38.803Z,0.14
2023-05-25T13:32:09.056Z,0.14
2023-05-25T13:34:39.458Z,0.12
2023-05-25T13:37:09.786Z,0.13
2023-05-25T13:39:40.542Z,0.14
2023-05-25T13:42:11.442Z,0.13
2023-05-25T13:44:41.790Z,0.13
2023-05-25T13:47:12.642Z,0.12
2023-05-25T13:49:42.936Z,0.13
2023-05-25T13:52:13.263Z,0.11
2023-05-25T13:54:44.195Z,0.11
2023-05-25T13:57:14.450Z,0.13
2023-05-25T13:59:44.758Z,0.13
2023-05-25T14:02:15.121Z,0.13
2023-05-25T14:04:45.378Z,0.14
2023-05-25T14:07:15.723Z,0.14
2023-05-25T14:09:46.005Z,0.14
2023-05-25T14:12:16.895Z,0.13
2023-05-25T14:14:47.317Z,0.14
2023-05-25T14:17:17.535Z,0.14
2023-05-25T14:19:48.052Z,0.14
2023-05-25T14:22:18.074Z,0.13
2023-05-25T14:24:48.103Z,0.15
2023-05-25T14:27:18.425Z,0.13
2023-05-25T14:29:48.983Z,0.13
2023-05-25T14:32:19.078Z,0.13
2023-05-25T14:34:49.385Z,0.13
2023-05-25T14:37:20.267Z,0.13
2023-05-25T14:39:50.591Z,0.13
2023-05-25T14:42:20.903Z,0.12
2023-05-25T14:44:51.788Z,0.12
2023-05-25T14:47:22.137Z,0.13
2023-05-25T14:49:52.430Z,0.13
2023-05-25T14:52:22.775Z,0.11
2023-05-25T14:54:53.729Z,0.11
2023-05-25T14:57:24.041Z,0.12
2023-05-25T14:59:54.362Z,0.11
2023-05-25T15:02:24.824Z,0.11
2023-05-25T15:04:55.143Z,0.11
2023-05-25T15:07:25.489Z,0.12
2023-05-25T15:09:55.788Z,0.12
2023-05-25T15:12:25.840Z,0.12
2023-05-25T15:14:56.231Z,0.13
2023-05-25T15:17:26.553Z,0.13
2023-05-25T15:19:56.919Z,0.13
2023-05-25T15:22:27.139Z,0.14
2023-05-25T15:24:57.454Z,0.14
2023-05-25T15:27:27.504Z,0.13
2023-05-25T15:29:57.875Z,0.13
2023-05-25T15:32:28.217Z,0.12
2023-05-25T15:34:58.527Z,0.13
2023-05-25T15:37:28.782Z,0.13
2023-05-25T15:39:59.651Z,0.13
2023-05-25T15:42:30.002Z,0.13
2023-05-25T15:45:00.361Z,0.13
2023-05-25T15:47:31.218Z,0.13
2023-05-25T15:50:01.534Z,0.12
2023-05-25T15:52:32.412Z,0.12
2023-05-25T15:55:03.378Z,0.11
2023-05-25T15:57:33.648Z,0.12
2023-05-25T16:00:04.765Z,0.11
2023-05-25T16:02:34.923Z,0.11
2023-05-25T16:05:05.350Z,0.12
2023-05-25T16:07:35.612Z,0.12
2023-05-25T16:10:05.907Z,0.13
2023-05-25T16:12:36.284Z,0.13
2023-05-25T16:15:07.181Z,0.13
2023-05-25T16:17:37.530Z,0.13
2023-05-25T16:20:07.985Z,0.14
2023-05-25T16:22:38.190Z,0.13
2023-05-25T16:25:08.332Z,0.13
2023-05-25T16:27:39.182Z,0.13
2023-05-25T16:30:11.087Z,0.13
2023-05-25T16:32:39.232Z,0.14
2023-05-25T16:35:09.559Z,0.14
2023-05-25T16:37:39.949Z,0.13
2023-05-25T16:40:10.809Z,0.13
2023-05-25T16:42:40.828Z,0.13
2023-05-25T16:45:11.742Z,0.12
2023-05-25T16:47:41.849Z,0.12
2023-05-25T16:50:11.881Z,0.13
2023-05-25T16:52:41.906Z,0.13
2023-05-25T16:55:12.239Z,0.12
2023-05-25T16:57:42.329Z,0.13
2023-05-25T17:00:12.744Z,0.13
2023-05-25T17:02:43.182Z,0.13
2023-05-25T17:05:13.734Z,0.13
2023-05-25T17:07:43.834Z,0.13
2023-05-25T17:10:14.113Z,0.13
2023-05-25T17:12:44.556Z,0.13
2023-05-25T17:15:14.582Z,0.13
2023-05-25T17:17:45.009Z,0.13
2023-05-25T17:20:15.442Z,0.12
2023-05-25T17:22:45.713Z,0.12
2023-05-25T17:25:15.787Z,0.12
2023-05-25T17:27:46.381Z,0.13
2023-05-25T17:30:16.840Z,0.14
2023-05-25T17:32:47.216Z,0.13
2023-05-25T17:35:17.523Z,0.13
2023-05-25T17:37:47.908Z,0.13
2023-05-25T17:40:17.982Z,0.13
2023-05-25T17:42:48.130Z,0.13
2023-05-25T17:45:18.163Z,0.13
2023-05-25T17:47:48.625Z,0.13
2023-05-25T17:50:18.997Z,0.14
2023-05-25T17:52:49.409Z,0.15
2023-05-25T17:55:19.773Z,0.15
2023-05-25T17:57:50.206Z,0.15
2023-05-25T18:00:20.675Z,0.15
2023-05-25T18:02:51.098Z,0.15
2023-05-25T18:05:21.440Z,0.15
2023-05-25T18:07:51.872Z,0.15
2023-05-25T18:10:22.251Z,0.16
2023-05-25T18:12:52.388Z,0.16
2023-05-25T18:15:22.546Z,0.16
2023-05-25T18:17:52.949Z,0.17
2023-05-25T18:20:23.486Z,0.17
2023-05-25T18:22:53.785Z,0.17
2023-05-25T18:25:24.284Z,0.16
2023-05-25T18:27:54.627Z,0.16
2023-05-25T18:30:25.041Z,0.16
2023-05-25T18:32:55.507Z,0.16
2023-05-25T18:35:26.016Z,0.17
2023-05-25T18:37:56.344Z,0.18
2023-05-25T18:40:26.847Z,0.18
2023-05-25T18:42:56.866Z,0.18
2023-05-25T18:45:27.314Z,0.17
2023-05-25T18:47:57.498Z,0.18
2023-05-25T18:50:27.609Z,0.17
2023-05-25T18:52:57.726Z,0.17
2023-05-25T18:55:28.285Z,0.18
2023-05-25T18:57:58.653Z,0.18
2023-05-25T19:00:28.857Z,0.19
2023-05-25T19:02:59.392Z,0.2
2023-05-25T19:05:29.406Z,0.21
2023-05-25T19:08:00.212Z,0.2
2023-05-25T19:10:30.316Z,0.21
2023-05-25T19:13:00.759Z,0.22
2023-05-25T19:15:31.213Z,0.21
2023-05-25T19:18:01.708Z,0.21
2023-05-25T19:20:32.203Z,0.21
2023-05-25T19:23:03.090Z,0.21
2023-05-25T19:25:33.637Z,0.21
2023-05-25T19:28:03.658Z,0.22
2023-05-25T19:30:34.115Z,0.21
2023-05-25T19:33:04.620Z,0.21
2023-05-25T19:35:35.127Z,0.21
2023-05-25T19:38:05.672Z,0.2
2023-05-25T19:40:35.889Z,0.21
2023-05-25T19:43:06.203Z,0.21
2023-05-25T19:45:36.741Z,0.21
2023-05-25T19:48:07.554Z,0.22
2023-05-25T19:50:37.786Z,0.23
2023-05-25T19:53:08.664Z,0.24
2023-05-25T19:55:39.442Z,0.23
2023-05-25T19:58:09.570Z,0.22
2023-05-25T20:00:39.547Z,0.22
2023-05-25T20:03:09.849Z,0.23
2023-05-25T20:05:40.528Z,0.24
2023-05-25T20:08:11.236Z,0.23
2023-05-25T20:10:41.532Z,0.24
2023-05-25T20:13:11.806Z,0.24
2023-05-25T20:15:42.695Z,0.26
2023-05-25T20:18:13.012Z,0.26
2023-05-25T20:20:43.212Z,0.28
2023-05-25T20:23:13.633Z,0.28
2023-05-25T20:25:44.469Z,0.26
2023-05-25T20:28:15.010Z,0.27
2023-05-25T20:30:45.413Z,0.27
2023-05-25T20:33:15.477Z,0.26
2023-05-25T20:35:46.660Z,0.28
2023-05-25T20:38:22.515Z,0.27
2023-05-25T20:40:47.435Z,0.28
2023-05-25T20:43:18.200Z,0.29
2023-05-25T20:45:49.125Z,0.29
2023-05-25T20:48:19.593Z,0.29
2023-05-25T20:50:49.993Z,0.31
2023-05-25T20:53:20.728Z,0.31
2023-05-25T20:55:50.833Z,0.33
2023-05-25T20:58:21.681Z,0.33
2023-05-25T21:00:52.476Z,0.32
2023-05-25T21:03:22.973Z,0.31
2023-05-25T21:05:53.658Z,0.31
2023-05-25T21:08:24.547Z,0.31
2023-05-25T21:10:54.622Z,0.32
2023-05-25T21:13:24.555Z,0.33
2023-05-25T21:15:55.121Z,0.32
2023-05-25T21:18:25.617Z,0.34
2023-05-25T21:20:56.323Z,0.33
2023-05-25T21:23:26.561Z,0.34
2023-05-25T21:25:56.933Z,0.35
2023-05-25T21:28:27.503Z,0.36
2023-05-25T21:30:58.107Z,0.36
2023-05-25T21:33:28.038Z,0.35
2023-05-25T21:35:58.080Z,0.35
2023-05-25T21:38:28.337Z,0.35
2023-05-25T21:40:58.929Z,0.34
2023-05-25T21:43:29.573Z,0.33
2023-05-25T21:46:00.383Z,0.33
2023-05-25T21:48:30.908Z,0.33
2023-05-25T21:51:01.460Z,0.33
2023-05-25T21:53:32.257Z,0.33
2023-05-25T21:56:02.803Z,0.33
2023-05-25T21:58:33.346Z,0.34
2023-05-25T22:01:04.066Z,0.33
2023-05-25T22:03:34.534Z,0.34
2023-05-25T22:06:04.921Z,0.32
2023-05-25T22:08:35.219Z,0.33
2023-05-25T22:11:05.585Z,0.35
2023-05-25T22:13:36.069Z,0.36
2023-05-25T22:16:06.628Z,0.36
2023-05-25T22:18:38.586Z,0.37
2023-05-25T22:21:07.412Z,0.37
2023-05-25T22:23:38.010Z,0.37
2023-05-25T22:26:08.257Z,0.38
2023-05-25T22:28:38.873Z,0.38
2023-05-25T22:31:09.501Z,0.4
2023-05-25T22:33:39.983Z,0.41
2023-05-25T22:36:10.531Z,0.42
2023-05-25T22:38:41.109Z,0.4
2023-05-25T22:41:11.375Z,0.4
2023-05-25T22:43:41.944Z,0.41
2023-05-25T22:46:12.529Z,0.42
2023-05-25T22:48:42.730Z,0.39
2023-05-25T22:51:13.297Z,0.39
2023-05-25T22:53:43.889Z,0.39
2023-05-25T22:56:14.168Z,0.41
2023-05-25T22:58:44.755Z,0.42
2023-05-25T23:01:15.111Z,0.43
2023-05-25T23:03:45.733Z,0.43
2023-05-25T23:06:16.180Z,0.41
2023-05-25T23:08:46.756Z,0.39
2023-05-25T23:11:17.312Z,0.41
2023-05-25T23:13:48.001Z,0.41
2023-05-25T23:16:18.522Z,0.42
2023-05-25T23:18:49.059Z,0.41
2023-05-25T23:21:19.635Z,0.39
2023-05-25T23:23:50.228Z,0.4
2023-05-25T23:26:20.852Z,0.39
2023-05-25T23:28:51.423Z,0.39
2023-05-25T23:31:22.005Z,0.4
2023-05-25T23:33:52.656Z,0.4
2023-05-25T23:36:23.140Z,0.42
2023-05-25T23:38:53.746Z,0.43
2023-05-25T23:41:23.975Z,0.41
2023-05-25T23:43:54.665Z,0.39
2023-05-25T23:46:25.252Z,0.39
2023-05-25T23:48:55.850Z,0.4
2023-05-25T23:51:26.092Z,0.41
2023-05-25T23:53:56.440Z,0.41
2023-05-25T23:56:27.098Z,0.42
2023-05-25T23:58:57.697Z,0.42
